Create Tblcommutelog Verified Points Advance Search
| # | Trip ID | Id Commuter | Trip Date | Trip Num | Current Lat | Current Lng | Delta Distance | Current Time | Activity | Activity Confidence | Current Speed | |
|---|---|---|---|---|---|---|---|---|---|---|---|---|
| 70601 | 260120_784692_16513841_0622 | 784692 | (not set) | (not set) | 38.841701198352 | -77.219722943748 | 16.1225 | 2026-01-20 06:42:21 | in_vehicle | 100 | 14.980285568679 | |
| 70602 | 260120_790094_16496156_0634 | 790094 | (not set) | (not set) | 39.12564340706 | -77.17571956437 | 4.9094 | 2026-01-20 06:42:21 | in_vehicle | 100 | 9.9868570457858 | |
| 70603 | 260120_789860_16489920_0627 | 789860 | (not set) | (not set) | 38.874172379205 | -77.28492429254 | 17.7447 | 2026-01-20 06:42:21 | in_vehicle | 100 | 15.163571664864 | |
| 70604 | 260120_786132_16505268_0623 | 786132 | (not set) | (not set) | 38.841715313606 | -77.219727340881 | 16.1632 | 2026-01-20 06:42:21 | in_vehicle | 100 | 14.91322967983 | |
| 70605 | 260120_790094_16496156_0634 | 790094 | (not set) | (not set) | 39.12564340706 | -77.17571956437 | 4.9094 | 2026-01-20 06:42:21 | in_vehicle | 100 | 9.9868570457858 | |
| 70606 | 260120_789860_16489920_0627 | 789860 | (not set) | (not set) | 38.874172379205 | -77.28492429254 | 17.7447 | 2026-01-20 06:42:21 | in_vehicle | 100 | 15.163571664864 | |
| 70607 | 260120_787968_16505268_0621 | 787968 | (not set) | (not set) | 38.841425983333 | -77.2196655 | 16.2151 | 2026-01-20 06:42:22 | in_vehicle | 100 | 14.810410650263 | |
| 70608 | 260120_739499_6441660_0634 | 739499 | (not set) | (not set) | 38.901088128715 | -77.02392026253 | 0.2916 | 2026-01-20 06:42:23 | on_foot | 100 | 0.74208516991962 | |
| 70609 | 260120_788077_16505268_0624 | 788077 | (not set) | (not set) | 38.840847264846 | -77.219579324841 | 15.8912 | 2026-01-20 06:42:24 | in_vehicle | 100 | 14.989226353858 | |
| 70610 | 260120_783292_6437402_0634 | 783292 | (not set) | (not set) | 38.881290200529 | -77.143063092917 | 2.8587 | 2026-01-20 06:42:25 | in_vehicle | 100 | 11.479968170805 | |
| 70611 | 260120_783292_6437402_0634 | 783292 | (not set) | (not set) | 38.881290200529 | -77.143063092917 | 2.8587 | 2026-01-20 06:42:25 | in_vehicle | 100 | 11.479968170805 | |
| 70612 | 260120_700145_16501163_0636 | 700145 | (not set) | (not set) | 39.307772589012 | -77.60858254815 | 1.2206 | 2026-01-20 06:42:25 | in_vehicle | 100 | 12.00747449641 | |
| 70613 | 260120_790453_16454630_0603 | 790453 | (not set) | (not set) | 38.795669117278 | -77.170711054594 | 29.7156 | 2026-01-20 06:42:26 | in_vehicle | 100 | 13.683871717614 | |
| 70614 | 260120_760357_16478572_0629 | 760357 | (not set) | (not set) | 38.903940795461 | -77.003815172986 | 0 | 2026-01-20 06:42:25 | still | 33 | 2.3693080726349 | |
| 70615 | 260120_790453_16454630_0603 | 790453 | (not set) | (not set) | 38.795669117278 | -77.170711054594 | 29.7156 | 2026-01-20 06:42:26 | in_vehicle | 100 | 13.683871717614 | |
| 70616 | 260120_790453_16454630_0603 | 790453 | (not set) | (not set) | 38.795669117278 | -77.170711054594 | 29.7156 | 2026-01-20 06:42:26 | in_vehicle | 100 | 13.683871717614 | |
| 70617 | 260120_760357_16478572_0629 | 760357 | (not set) | (not set) | 38.903989249919 | -77.003797535909 | 0.4169 | 2026-01-20 06:42:26 | still | 33 | 2.293311398607 | |
| 70618 | 260120_787968_16505268_0621 | 787968 | (not set) | (not set) | 38.839627283333 | -77.2192517 | 16.3412 | 2026-01-20 06:42:28 | in_vehicle | 100 | 15.154630879684 | |
| 70619 | 260120_779684_16420702_0635 | 779684 | (not set) | (not set) | 39.165529092424 | -77.015391344237 | 4.694 | 2026-01-20 06:42:28 | in_vehicle | 100 | 9.6024032830563 | |
| 70620 | 260120_784815_16448780_0623 | 784815 | (not set) | (not set) | 39.082651970152 | -76.709298864009 | 15.5035 | 2026-01-20 06:42:29 | still | 33 | 7.5594338694824 |